»·PEaware :: USC81 KTSP-KRDD

USC81 :: KTSP-KRDD

FLIGHT INFORMATION

Flight Status: Arrived
Operator: Unknown
More flights by this operator :: More flights under this callsign
Pilot: Andy P. (22680)
Aircraft: GATES LEARJET LEARJET 35/36
(LJ35)
More flights by this aircraft type
Origin: KTSP Tehachapi Mun
United States
Destination: KRDD Redding Mun
United States
More flights between these airports :: More routes between these airports
Route: LANDO AVE J189 LIN SAC RBL
File this flight plan on PilotEdge
Remarks:
Altitude:
(Current/Filed)
34,000ft
Speed:
(Current/Filed)
465kts
Departed: 10-Oct-19 08:12 PM
Arrived: 10-Oct-19 09:19 PM
Distance/Time
Traveled:
371nm/1:07
Distance/Time
To Go:
Arrived

Flight Plot

Page will automatically refresh every two minutes.

Flight plan parsing failed; only flown route is shown


Map Options




Map Legend


Flown Route
Filed Route
Departure Airport
Arrival Airport
Navaid (VOR, NDB)
Fix

Horizontal Profiles

Position Reports

Time Latitude Longitude Heading Altitude Ground
Speed
10-Oct-19 19:54 35.135189 -118.441183 297 4003ft 0kts
10-Oct-19 19:55 35.135189 -118.441183 297 4003ft 0kts
10-Oct-19 19:56 35.135189 -118.441183 297 4003ft 0kts
10-Oct-19 19:57 35.135189 -118.441183 297 4003ft 0kts
10-Oct-19 19:58 35.135189 -118.441183 297 4003ft 0kts
10-Oct-19 19:59 35.135189 -118.441183 297 4003ft 0kts
10-Oct-19 20:00 35.135189 -118.441183 297 4003ft 0kts
10-Oct-19 20:01 35.135189 -118.441183 297 4003ft 0kts
10-Oct-19 20:02 35.135189 -118.441183 297 4003ft 0kts
10-Oct-19 20:03 35.135189 -118.441183 297 4003ft 0kts
10-Oct-19 20:04 35.135189 -118.441183 297 4003ft 0kts
10-Oct-19 20:05 35.135189 -118.441183 297 4003ft 0kts
10-Oct-19 20:06 35.135189 -118.441183 297 4003ft 0kts
10-Oct-19 20:07 35.135189 -118.441183 297 4003ft 0kts
10-Oct-19 20:08 35.135189 -118.441183 297 4003ft 0kts
10-Oct-19 20:09 35.135945 -118.441698 308 4003ft 15kts
10-Oct-19 20:10 35.138038 -118.444659 116 4003ft 0kts
10-Oct-19 20:11 35.126923 -118.424871 123 4225ft 179kts
10-Oct-19 20:12 35.078324 -118.392437 198 7250ft 254kts
10-Oct-19 20:13 35.026099 -118.453664 248 10064ft 277kts
10-Oct-19 20:14 34.999682 -118.540092 262 12108ft 268kts
10-Oct-19 20:15 35.019290 -118.633800 298 14789ft 312kts
10-Oct-19 20:16 35.066290 -118.726837 296 18161ft 327kts
10-Oct-19 20:17 35.112578 -118.823468 301 21413ft 325kts
10-Oct-19 20:18 35.157513 -118.922131 298 23027ft 358kts
10-Oct-19 20:19 35.209359 -119.033389 299 23093ft 418kts
10-Oct-19 20:20 35.267726 -119.158057 298 24973ft 415kts
10-Oct-19 20:21 35.323705 -119.277949 298 27358ft 395kts
10-Oct-19 20:23 35.376613 -119.391627 297 29653ft 373kts
10-Oct-19 20:24 35.427636 -119.501668 296 31193ft 369kts
10-Oct-19 20:25 35.477914 -119.610431 296 32610ft 364kts
10-Oct-19 20:26 35.527619 -119.718296 295 33879ft 361kts
10-Oct-19 20:27 35.578503 -119.829172 295 34062ft 386kts
10-Oct-19 20:28 35.634592 -119.946694 305 34061ft 414kts
10-Oct-19 20:29 35.739596 -120.015027 338 34063ft 449kts
10-Oct-19 20:30 35.859325 -120.065253 337 34070ft 461kts
10-Oct-19 20:31 35.982080 -120.116096 337 34069ft 465kts
10-Oct-19 20:32 36.104523 -120.166695 337 34069ft 463kts
10-Oct-19 20:33 36.226485 -120.217222 337 34068ft 461kts
10-Oct-19 20:34 36.348102 -120.267763 337 34068ft 460kts
10-Oct-19 20:35 36.469180 -120.318247 337 34068ft 459kts
10-Oct-19 20:36 36.590098 -120.368822 338 34070ft 458kts
10-Oct-19 20:37 36.710398 -120.419317 338 34070ft 457kts
10-Oct-19 20:38 36.830680 -120.469969 338 34070ft 456kts
10-Oct-19 20:39 36.951017 -120.520806 338 34052ft 455kts
10-Oct-19 20:40 37.070594 -120.571501 338 34051ft 454kts
10-Oct-19 20:41 37.190158 -120.622358 338 34051ft 453kts
10-Oct-19 20:41 37.289344 -120.664673 338 34051ft 452kts
10-Oct-19 20:42 37.408160 -120.715520 338 34051ft 451kts
10-Oct-19 20:44 37.546634 -120.774998 338 34051ft 450kts
10-Oct-19 20:45 37.665022 -120.826028 338 34054ft 449kts
10-Oct-19 20:45 37.763608 -120.868663 338 34055ft 449kts
10-Oct-19 20:46 37.881641 -120.919863 338 34055ft 448kts
10-Oct-19 20:47 37.999638 -120.971221 338 34055ft 448kts
10-Oct-19 20:48 38.105059 -121.048891 310 34054ft 440kts
10-Oct-19 20:49 38.184923 -121.166737 309 34049ft 439kts
10-Oct-19 20:50 38.264395 -121.284495 309 34049ft 439kts
10-Oct-19 20:51 38.343903 -121.402716 309 34040ft 439kts
10-Oct-19 20:52 38.424637 -121.520922 315 33344ft 452kts
10-Oct-19 20:53 38.538821 -121.589454 340 31259ft 460kts
10-Oct-19 20:54 38.659624 -121.638953 340 29161ft 450kts
10-Oct-19 20:55 38.778296 -121.687354 341 27043ft 445kts
10-Oct-19 20:56 38.895779 -121.735338 341 25042ft 441kts
10-Oct-19 20:57 39.012108 -121.783000 341 23023ft 440kts
10-Oct-19 20:58 39.126585 -121.830058 341 21169ft 424kts
10-Oct-19 20:59 39.235652 -121.874405 341 20055ft 394kts
10-Oct-19 21:00 39.337573 -121.917071 341 19047ft 388kts
10-Oct-19 21:01 39.442251 -121.960625 342 17158ft 400kts
10-Oct-19 21:02 39.549057 -122.005124 342 15266ft 407kts
10-Oct-19 21:03 39.652906 -122.048525 342 13359ft 361kts
10-Oct-19 21:04 39.743673 -122.086541 342 11468ft 324kts
10-Oct-19 21:05 39.825216 -122.120803 343 9591ft 294kts
10-Oct-19 21:06 39.899367 -122.152023 343 8384ft 270kts
10-Oct-19 21:07 39.969229 -122.181498 343 7233ft 259kts
10-Oct-19 21:08 40.037005 -122.210152 343 6096ft 253kts
10-Oct-19 21:09 40.100762 -122.237079 343 5811ft 224kts
10-Oct-19 21:10 40.163866 -122.267199 341 4204ft 249kts
10-Oct-19 21:11 40.227532 -122.294634 354 2938ft 223kts
10-Oct-19 21:12 40.279213 -122.296466 3 2864ft 170kts
10-Oct-19 21:13 40.323631 -122.294317 359 2533ft 172kts
10-Oct-19 21:14 40.368600 -122.294602 3 2577ft 152kts
10-Oct-19 21:15 40.412584 -122.294471 0 2031ft 155kts
10-Oct-19 21:16 40.454381 -122.294986 359 1396ft 147kts
10-Oct-19 21:17 40.493953 -122.294991 0 669ft 135kts
10-Oct-19 21:18 40.509917 -122.296308 182 505ft 14kts
10-Oct-19 21:19 40.508519 -122.299088 356 505ft 0kts
10-Oct-19 21:20 40.508519 -122.299088 356 505ft 0kts

Navigation Log

Ident Type
Flight plan parsing failed, navigation log unavailable